PHCHR EHLE-EHLE
Flight info
| Callsign | PHCHR |
|---|---|
| Flight time | N/A |
| Altitude | 8000 |
| Route | 5222N00459E 5210N00459E 5206N00512E 5126N00529E 5113N00425E 5113N00313E DCT EHRD |
| Aircraft | BE36/L-BDFGLORY/S |
Departure
| Time | 2026-04-23 10:42 |
|---|---|
| Airport | Lelystad Airport (EHLE) |
Arrival
| Time | N/A |
|---|---|
| Airport | Lelystad Airport (EHLE) |
| Time | Latitude | Longitude | Altitude | Speed | Heading |
|---|---|---|---|---|---|
| 2026-04-23 10:38 | 52.45429 | 5.52133 | -9 ft | 0 kts | 317° |
| 2026-04-23 10:39 | 52.45434 | 5.52131 | -9 ft | 5 kts | 349° |
| 2026-04-23 10:39 | 52.45505 | 5.52183 | -9 ft | 15 kts | 46° |
| 2026-04-23 10:40 | 52.45589 | 5.52276 | -9 ft | 14 kts | 317° |
| 2026-04-23 10:40 | 52.45657 | 5.52187 | -8 ft | 11 kts | 324° |
| 2026-04-23 10:40 | 52.45714 | 5.52126 | -8 ft | 9 kts | 329° |
| 2026-04-23 10:40 | 52.45685 | 5.52113 | -8 ft | 24 kts | 224° |
| 2026-04-23 10:41 | 52.45432 | 5.51655 | 1 ft | 79 kts | 228° |
| 2026-04-23 10:41 | 52.45117 | 5.50793 | 200 ft | 99 kts | 255° |
| 2026-04-23 10:41 | 52.44868 | 5.49569 | 444 ft | 120 kts | 259° |
| 2026-04-23 10:41 | 52.44705 | 5.48031 | 488 ft | 152 kts | 263° |
| 2026-04-23 10:42 | 52.44489 | 5.46281 | 701 ft | 160 kts | 259° |
| 2026-04-23 10:42 | 52.44216 | 5.44487 | 971 ft | 162 kts | 259° |
| 2026-04-23 10:42 | 52.43942 | 5.42667 | 1223 ft | 164 kts | 258° |
| 2026-04-23 10:42 | 52.43632 | 5.40866 | 1490 ft | 165 kts | 258° |
| 2026-04-23 10:43 | 52.43336 | 5.39028 | 1750 ft | 168 kts | 258° |
| 2026-04-23 10:43 | 52.43040 | 5.37201 | 2118 ft | 164 kts | 259° |
| 2026-04-23 10:43 | 52.42754 | 5.35426 | 2471 ft | 160 kts | 259° |
| 2026-04-23 10:43 | 52.42463 | 5.33647 | 2821 ft | 162 kts | 259° |
| 2026-04-23 10:44 | 52.42177 | 5.31878 | 3175 ft | 158 kts | 260° |
| 2026-04-23 10:44 | 52.41898 | 5.30150 | 3534 ft | 156 kts | 261° |
| 2026-04-23 10:44 | 52.41616 | 5.28435 | 3874 ft | 158 kts | 259° |
| 2026-04-23 10:44 | 52.41332 | 5.26692 | 4234 ft | 159 kts | 261° |
| 2026-04-23 10:45 | 52.41045 | 5.24949 | 4585 ft | 159 kts | 259° |
| 2026-04-23 10:45 | 52.40759 | 5.23185 | 4936 ft | 161 kts | 259° |
| 2026-04-23 10:45 | 52.40471 | 5.21428 | 5297 ft | 159 kts | 259° |
| 2026-04-23 10:45 | 52.40185 | 5.19686 | 5644 ft | 158 kts | 259° |
| 2026-04-23 10:46 | 52.39902 | 5.17956 | 5992 ft | 157 kts | 259° |
| 2026-04-23 10:46 | 52.39619 | 5.16234 | 6343 ft | 155 kts | 259° |
| 2026-04-23 10:46 | 52.39343 | 5.14555 | 6697 ft | 150 kts | 259° |
| 2026-04-23 10:46 | 52.39076 | 5.12937 | 7037 ft | 147 kts | 260° |
| 2026-04-23 10:47 | 52.38813 | 5.11337 | 7365 ft | 143 kts | 260° |
| 2026-04-23 10:47 | 52.38555 | 5.09779 | 7698 ft | 140 kts | 260° |
| 2026-04-23 10:47 | 52.38305 | 5.08261 | 8034 ft | 136 kts | 260° |
| 2026-04-23 10:47 | 52.38061 | 5.06784 | 8370 ft | 133 kts | 261° |
| 2026-04-23 10:48 | 52.37817 | 5.05281 | 8477 ft | 148 kts | 261° |
| 2026-04-23 10:48 | 52.37535 | 5.03556 | 8489 ft | 164 kts | 260° |
| 2026-04-23 10:48 | 52.37223 | 5.01683 | 8491 ft | 175 kts | 258° |
| 2026-04-23 10:48 | 52.36602 | 4.99913 | 8491 ft | 186 kts | 229° |
| 2026-04-23 10:49 | 52.35534 | 4.98681 | 8483 ft | 183 kts | 202° |
| 2026-04-23 10:49 | 52.34277 | 4.98316 | 8479 ft | 187 kts | 179° |
| 2026-04-23 10:49 | 52.32961 | 4.98330 | 8488 ft | 191 kts | 178° |
| 2026-04-23 10:49 | 52.31641 | 4.98333 | 8490 ft | 194 kts | 178° |
| 2026-04-23 10:50 | 52.30281 | 4.98334 | 8488 ft | 196 kts | 178° |
| 2026-04-23 10:50 | 52.28913 | 4.98334 | 8487 ft | 197 kts | 179° |
| 2026-04-23 10:50 | 52.27543 | 4.98333 | 8488 ft | 196 kts | 179° |
| 2026-04-23 10:50 | 52.26177 | 4.98333 | 8489 ft | 196 kts | 178° |
| 2026-04-23 10:51 | 52.24799 | 4.98334 | 8485 ft | 198 kts | 178° |
| 2026-04-23 10:51 | 52.23419 | 4.98333 | 8486 ft | 199 kts | 179° |
| 2026-04-23 10:51 | 52.22030 | 4.98335 | 8486 ft | 199 kts | 178° |
| 2026-04-23 10:51 | 52.20640 | 4.98333 | 8487 ft | 200 kts | 178° |
| 2026-04-23 10:52 | 52.19249 | 4.98333 | 8487 ft | 200 kts | 179° |
| 2026-04-23 10:52 | 52.17894 | 4.98557 | 8483 ft | 197 kts | 160° |
| 2026-04-23 10:52 | 52.16687 | 4.99570 | 8475 ft | 194 kts | 139° |
| 2026-04-23 10:52 | 52.15805 | 5.01186 | 8472 ft | 189 kts | 117° |
| 2026-04-23 10:53 | 52.15220 | 5.03074 | 8477 ft | 186 kts | 112° |
| 2026-04-23 10:53 | 52.14632 | 5.04963 | 8471 ft | 186 kts | 112° |
| 2026-04-23 10:53 | 52.14052 | 5.06850 | 8470 ft | 186 kts | 112° |
| 2026-04-23 10:53 | 52.13478 | 5.08717 | 8470 ft | 186 kts | 112° |
| 2026-04-23 10:54 | 52.12898 | 5.10603 | 8471 ft | 187 kts | 112° |
| 2026-04-23 10:54 | 52.12319 | 5.12487 | 8471 ft | 186 kts | 112° |
| 2026-04-23 10:54 | 52.11738 | 5.14370 | 8468 ft | 186 kts | 112° |
| 2026-04-23 10:54 | 52.11156 | 5.16254 | 8465 ft | 186 kts | 112° |
| 2026-04-23 10:55 | 52.10564 | 5.18133 | 8472 ft | 187 kts | 116° |
| 2026-04-23 10:55 | 52.09666 | 5.19706 | 8458 ft | 193 kts | 139° |
| 2026-04-23 10:55 | 52.08472 | 5.20666 | 8455 ft | 197 kts | 161° |
| 2026-04-23 10:55 | 52.07148 | 5.21225 | 8464 ft | 197 kts | 162° |
| 2026-04-23 10:56 | 52.05825 | 5.21801 | 8464 ft | 197 kts | 163° |
| 2026-04-23 10:56 | 52.04491 | 5.22375 | 8458 ft | 199 kts | 162° |
| 2026-04-23 10:56 | 52.03154 | 5.22949 | 8461 ft | 198 kts | 162° |
| 2026-04-23 10:56 | 52.01822 | 5.23521 | 8466 ft | 197 kts | 162° |
| 2026-04-23 10:57 | 52.00493 | 5.24093 | 8459 ft | 197 kts | 162° |
| 2026-04-23 10:57 | 51.99168 | 5.24663 | 8465 ft | 197 kts | 162° |
| 2026-04-23 10:57 | 51.97841 | 5.25231 | 8461 ft | 197 kts | 162° |
| 2026-04-23 10:57 | 51.96528 | 5.25795 | 8465 ft | 197 kts | 162° |
| 2026-04-23 10:58 | 51.95197 | 5.26369 | 8460 ft | 198 kts | 162° |
| 2026-04-23 10:58 | 51.93862 | 5.26936 | 8466 ft | 198 kts | 162° |
| 2026-04-23 10:58 | 51.92525 | 5.27512 | 8450 ft | 199 kts | 162° |
| 2026-04-23 10:58 | 51.91187 | 5.28083 | 8456 ft | 197 kts | 162° |
| 2026-04-23 10:59 | 51.89863 | 5.28648 | 8456 ft | 197 kts | 162° |
| 2026-04-23 10:59 | 51.88556 | 5.29207 | 8451 ft | 196 kts | 162° |
| 2026-04-23 10:59 | 51.87228 | 5.29775 | 8448 ft | 196 kts | 162° |
| 2026-04-23 10:59 | 51.85903 | 5.30340 | 8449 ft | 197 kts | 162° |
| 2026-04-23 11:00 | 51.84579 | 5.30909 | 8452 ft | 196 kts | 162° |
| 2026-04-23 11:00 | 51.83266 | 5.31463 | 8450 ft | 196 kts | 162° |
| 2026-04-23 11:00 | 51.81946 | 5.32029 | 8451 ft | 196 kts | 162° |
| 2026-04-23 11:00 | 51.80620 | 5.32593 | 8451 ft | 196 kts | 162° |
| 2026-04-23 11:01 | 51.79297 | 5.33158 | 8448 ft | 197 kts | 162° |
| 2026-04-23 11:01 | 51.77970 | 5.33719 | 8450 ft | 196 kts | 162° |
| 2026-04-23 11:01 | 51.76647 | 5.34283 | 8457 ft | 196 kts | 163° |
| 2026-04-23 11:01 | 51.75340 | 5.34837 | 8453 ft | 197 kts | 163° |
| 2026-04-23 11:02 | 51.74005 | 5.35405 | 8460 ft | 198 kts | 163° |
| 2026-04-23 11:02 | 51.72671 | 5.35972 | 8457 ft | 198 kts | 163° |
| 2026-04-23 11:02 | 51.71353 | 5.36530 | 8456 ft | 197 kts | 163° |
| 2026-04-23 11:02 | 51.70025 | 5.37091 | 8459 ft | 197 kts | 163° |
| 2026-04-23 11:03 | 51.68702 | 5.37654 | 8460 ft | 196 kts | 162° |
| 2026-04-23 11:03 | 51.67380 | 5.38216 | 8456 ft | 196 kts | 163° |
| 2026-04-23 11:03 | 51.66054 | 5.38769 | 8455 ft | 196 kts | 163° |
| 2026-04-23 11:03 | 51.64753 | 5.39323 | 8459 ft | 196 kts | 163° |
| 2026-04-23 11:04 | 51.63433 | 5.39878 | 8463 ft | 196 kts | 163° |
| 2026-04-23 11:04 | 51.62110 | 5.40443 | 8456 ft | 196 kts | 163° |